sensor_id;sensor_type;location;lat;lon;timestamp;P1;durP1;ratioP1;P2;durP2;ratioP2
81298;SDS011;70766;53.170;18.160;2023-11-18T00:00:40;35.90;;;13.20;;
81298;SDS011;70766;53.170;18.160;2023-11-18T00:03:29;33.30;;;12.70;;
81298;SDS011;70766;53.170;18.160;2023-11-18T00:05:57;24.20;;;10.20;;
81298;SDS011;70766;53.170;18.160;2023-11-18T00:08:25;26.50;;;10.10;;
81298;SDS011;70766;53.170;18.160;2023-11-18T00:10:54;26.60;;;10.10;;
81298;SDS011;70766;53.170;18.160;2023-11-18T00:13:22;20.30;;;9.00;;
81298;SDS011;70766;53.170;18.160;2023-11-18T00:15:53;28.00;;;10.80;;
81298;SDS011;70766;53.170;18.160;2023-11-18T00:18:21;34.70;;;14.30;;
81298;SDS011;70766;53.170;18.160;2023-11-18T00:20:49;32.70;;;13.10;;
81298;SDS011;70766;53.170;18.160;2023-11-18T00:23:18;29.40;;;11.60;;
81298;SDS011;70766;53.170;18.160;2023-11-18T00:25:49;33.80;;;14.00;;
81298;SDS011;70766;53.170;18.160;2023-11-18T00:28:17;30.10;;;12.00;;
81298;SDS011;70766;53.170;18.160;2023-11-18T00:30:47;24.20;;;10.50;;
81298;SDS011;70766;53.170;18.160;2023-11-18T00:33:16;23.40;;;9.80;;
81298;SDS011;70766;53.170;18.160;2023-11-18T00:35:44;29.50;;;12.10;;
81298;SDS011;70766;53.170;18.160;2023-11-18T00:38:13;26.40;;;10.00;;
81298;SDS011;70766;53.170;18.160;2023-11-18T00:40:41;27.00;;;9.90;;
81298;SDS011;70766;53.170;18.160;2023-11-18T00:43:09;33.00;;;13.50;;
81298;SDS011;70766;53.170;18.160;2023-11-18T00:45:37;33.10;;;13.70;;
81298;SDS011;70766;53.170;18.160;2023-11-18T00:48:05;30.60;;;11.40;;
81298;SDS011;70766;53.170;18.160;2023-11-18T00:50:33;27.80;;;11.00;;
81298;SDS011;70766;53.170;18.160;2023-11-18T00:53:01;14.30;;;5.90;;
81298;SDS011;70766;53.170;18.160;2023-11-18T00:55:30;29.80;;;11.60;;
81298;SDS011;70766;53.170;18.160;2023-11-18T00:57:59;24.60;;;10.60;;
81298;SDS011;70766;53.170;18.160;2023-11-18T01:00:27;30.60;;;11.30;;
81298;SDS011;70766;53.170;18.160;2023-11-18T01:02:55;23.00;;;8.80;;
81298;SDS011;70766;53.170;18.160;2023-11-18T01:05:24;25.10;;;10.00;;
81298;SDS011;70766;53.170;18.160;2023-11-18T01:07:53;26.10;;;11.30;;
81298;SDS011;70766;53.170;18.160;2023-11-18T01:10:22;29.10;;;11.40;;
81298;SDS011;70766;53.170;18.160;2023-11-18T01:12:50;32.20;;;11.90;;
81298;SDS011;70766;53.170;18.160;2023-11-18T01:15:18;23.90;;;10.00;;
81298;SDS011;70766;53.170;18.160;2023-11-18T01:17:46;28.50;;;10.40;;
81298;SDS011;70766;53.170;18.160;2023-11-18T01:20:14;30.50;;;12.50;;
81298;SDS011;70766;53.170;18.160;2023-11-18T01:22:49;31.20;;;11.00;;
81298;SDS011;70766;53.170;18.160;2023-11-18T01:25:17;27.80;;;11.20;;
81298;SDS011;70766;53.170;18.160;2023-11-18T01:27:46;13.40;;;5.60;;
81298;SDS011;70766;53.170;18.160;2023-11-18T01:30:15;26.90;;;9.40;;
81298;SDS011;70766;53.170;18.160;2023-11-18T01:32:43;31.20;;;12.60;;
81298;SDS011;70766;53.170;18.160;2023-11-18T01:35:11;23.30;;;7.50;;
81298;SDS011;70766;53.170;18.160;2023-11-18T01:37:41;27.30;;;11.10;;
81298;SDS011;70766;53.170;18.160;2023-11-18T01:40:09;27.90;;;9.00;;
81298;SDS011;70766;53.170;18.160;2023-11-18T01:42:41;26.30;;;10.30;;
81298;SDS011;70766;53.170;18.160;2023-11-18T01:45:11;25.70;;;9.50;;
81298;SDS011;70766;53.170;18.160;2023-11-18T01:47:40;29.20;;;11.50;;
81298;SDS011;70766;53.170;18.160;2023-11-18T01:50:09;32.30;;;12.10;;
81298;SDS011;70766;53.170;18.160;2023-11-18T01:52:40;26.80;;;8.10;;
81298;SDS011;70766;53.170;18.160;2023-11-18T01:55:13;25.90;;;9.90;;
81298;SDS011;70766;53.170;18.160;2023-11-18T01:57:41;23.30;;;9.30;;
81298;SDS011;70766;53.170;18.160;2023-11-18T02:00:12;27.10;;;9.70;;
81298;SDS011;70766;53.170;18.160;2023-11-18T02:02:41;28.80;;;11.70;;
81298;SDS011;70766;53.170;18.160;2023-11-18T02:05:12;28.30;;;10.60;;
81298;SDS011;70766;53.170;18.160;2023-11-18T02:07:41;30.30;;;11.60;;
81298;SDS011;70766;53.170;18.160;2023-11-18T02:10:09;26.50;;;11.40;;
81298;SDS011;70766;53.170;18.160;2023-11-18T02:12:46;40.20;;;15.20;;
81298;SDS011;70766;53.170;18.160;2023-11-18T02:15:24;30.10;;;11.50;;
81298;SDS011;70766;53.170;18.160;2023-11-18T02:17:54;41.60;;;15.40;;
81298;SDS011;70766;53.170;18.160;2023-11-18T02:20:25;41.80;;;16.00;;
81298;SDS011;70766;53.170;18.160;2023-11-18T02:22:54;28.60;;;11.60;;
81298;SDS011;70766;53.170;18.160;2023-11-18T02:25:23;30.90;;;12.80;;
81298;SDS011;70766;53.170;18.160;2023-11-18T02:27:55;19.30;;;7.10;;
81298;SDS011;70766;53.170;18.160;2023-11-18T02:30:23;34.80;;;12.00;;
81298;SDS011;70766;53.170;18.160;2023-11-18T02:32:57;30.40;;;11.70;;
81298;SDS011;70766;53.170;18.160;2023-11-18T02:35:37;33.70;;;13.40;;
81298;SDS011;70766;53.170;18.160;2023-11-18T02:38:11;28.40;;;10.00;;
81298;SDS011;70766;53.170;18.160;2023-11-18T02:40:40;39.00;;;13.80;;
81298;SDS011;70766;53.170;18.160;2023-11-18T02:43:12;32.70;;;11.40;;
81298;SDS011;70766;53.170;18.160;2023-11-18T02:45:40;30.60;;;12.30;;
81298;SDS011;70766;53.170;18.160;2023-11-18T02:48:10;22.30;;;8.00;;
81298;SDS011;70766;53.170;18.160;2023-11-18T02:50:38;26.80;;;10.60;;
81298;SDS011;70766;53.170;18.160;2023-11-18T02:53:09;21.30;;;9.00;;
81298;SDS011;70766;53.170;18.160;2023-11-18T02:55:37;25.50;;;11.40;;
81298;SDS011;70766;53.170;18.160;2023-11-18T02:58:05;34.10;;;12.20;;
81298;SDS011;70766;53.170;18.160;2023-11-18T03:00:35;26.90;;;10.00;;
81298;SDS011;70766;53.170;18.160;2023-11-18T03:03:03;24.70;;;9.60;;
81298;SDS011;70766;53.170;18.160;2023-11-18T03:05:31;27.70;;;10.70;;
81298;SDS011;70766;53.170;18.160;2023-11-18T03:07:59;23.90;;;9.40;;
81298;SDS011;70766;53.170;18.160;2023-11-18T03:10:27;29.80;;;11.60;;
81298;SDS011;70766;53.170;18.160;2023-11-18T03:12:58;33.40;;;12.70;;
81298;SDS011;70766;53.170;18.160;2023-11-18T03:15:26;22.00;;;8.80;;
81298;SDS011;70766;53.170;18.160;2023-11-18T03:17:54;36.70;;;12.50;;
81298;SDS011;70766;53.170;18.160;2023-11-18T03:20:23;22.30;;;8.90;;
81298;SDS011;70766;53.170;18.160;2023-11-18T03:22:51;22.70;;;8.80;;
81298;SDS011;70766;53.170;18.160;2023-11-18T03:25:20;26.20;;;10.80;;
81298;SDS011;70766;53.170;18.160;2023-11-18T03:27:51;23.60;;;9.30;;
81298;SDS011;70766;53.170;18.160;2023-11-18T03:30:22;29.40;;;10.80;;
81298;SDS011;70766;53.170;18.160;2023-11-18T03:32:51;27.60;;;8.90;;
81298;SDS011;70766;53.170;18.160;2023-11-18T03:35:19;20.30;;;7.90;;
81298;SDS011;70766;53.170;18.160;2023-11-18T03:37:47;26.50;;;10.60;;
81298;SDS011;70766;53.170;18.160;2023-11-18T03:40:15;23.20;;;7.70;;
81298;SDS011;70766;53.170;18.160;2023-11-18T03:42:44;26.70;;;10.40;;
81298;SDS011;70766;53.170;18.160;2023-11-18T03:45:15;25.50;;;9.00;;
81298;SDS011;70766;53.170;18.160;2023-11-18T03:47:45;22.00;;;8.30;;
81298;SDS011;70766;53.170;18.160;2023-11-18T03:50:16;25.10;;;8.90;;
81298;SDS011;70766;53.170;18.160;2023-11-18T03:52:45;32.10;;;12.30;;
81298;SDS011;70766;53.170;18.160;2023-11-18T03:55:13;26.20;;;9.00;;
81298;SDS011;70766;53.170;18.160;2023-11-18T03:57:41;33.90;;;11.80;;
81298;SDS011;70766;53.170;18.160;2023-11-18T04:00:09;23.00;;;8.50;;
81298;SDS011;70766;53.170;18.160;2023-11-18T04:02:40;31.10;;;11.30;;
81298;SDS011;70766;53.170;18.160;2023-11-18T04:05:09;28.90;;;10.60;;
81298;SDS011;70766;53.170;18.160;2023-11-18T04:07:38;25.80;;;9.20;;
81298;SDS011;70766;53.170;18.160;2023-11-18T04:10:10;26.90;;;11.10;;
81298;SDS011;70766;53.170;18.160;2023-11-18T04:12:38;29.10;;;11.20;;
81298;SDS011;70766;53.170;18.160;2023-11-18T04:15:06;30.70;;;10.80;;
81298;SDS011;70766;53.170;18.160;2023-11-18T04:17:35;27.10;;;9.70;;
81298;SDS011;70766;53.170;18.160;2023-11-18T04:20:03;28.90;;;10.20;;
81298;SDS011;70766;53.170;18.160;2023-11-18T04:22:41;34.00;;;12.00;;
81298;SDS011;70766;53.170;18.160;2023-11-18T04:25:10;34.10;;;12.90;;
81298;SDS011;70766;53.170;18.160;2023-11-18T04:27:39;37.00;;;13.90;;
81298;SDS011;70766;53.170;18.160;2023-11-18T04:30:13;30.40;;;11.90;;
81298;SDS011;70766;53.170;18.160;2023-11-18T04:32:41;29.60;;;11.50;;
81298;SDS011;70766;53.170;18.160;2023-11-18T04:35:11;29.00;;;10.30;;
81298;SDS011;70766;53.170;18.160;2023-11-18T04:37:40;28.20;;;9.70;;
81298;SDS011;70766;53.170;18.160;2023-11-18T04:40:13;24.20;;;8.60;;
81298;SDS011;70766;53.170;18.160;2023-11-18T04:42:43;28.80;;;10.10;;
81298;SDS011;70766;53.170;18.160;2023-11-18T04:45:12;31.50;;;10.90;;
81298;SDS011;70766;53.170;18.160;2023-11-18T04:47:42;21.00;;;8.70;;
81298;SDS011;70766;53.170;18.160;2023-11-18T04:50:12;22.90;;;9.50;;
81298;SDS011;70766;53.170;18.160;2023-11-18T04:52:40;28.20;;;11.00;;
81298;SDS011;70766;53.170;18.160;2023-11-18T04:55:09;36.90;;;13.40;;
81298;SDS011;70766;53.170;18.160;2023-11-18T04:57:41;31.20;;;11.10;;
81298;SDS011;70766;53.170;18.160;2023-11-18T05:00:11;23.60;;;9.30;;
81298;SDS011;70766;53.170;18.160;2023-11-18T05:02:40;29.40;;;11.30;;
81298;SDS011;70766;53.170;18.160;2023-11-18T05:05:08;31.60;;;11.80;;
81298;SDS011;70766;53.170;18.160;2023-11-18T05:07:37;32.70;;;12.40;;
81298;SDS011;70766;53.170;18.160;2023-11-18T05:10:06;27.30;;;9.60;;
81298;SDS011;70766;53.170;18.160;2023-11-18T05:12:39;28.90;;;10.20;;
81298;SDS011;70766;53.170;18.160;2023-11-18T05:15:07;31.90;;;11.40;;
81298;SDS011;70766;53.170;18.160;2023-11-18T05:17:36;31.60;;;10.60;;
81298;SDS011;70766;53.170;18.160;2023-11-18T05:20:05;26.90;;;9.90;;
81298;SDS011;70766;53.170;18.160;2023-11-18T05:22:37;26.40;;;10.70;;
81298;SDS011;70766;53.170;18.160;2023-11-18T05:25:05;19.90;;;8.10;;
81298;SDS011;70766;53.170;18.160;2023-11-18T05:27:33;28.40;;;10.10;;
81298;SDS011;70766;53.170;18.160;2023-11-18T05:30:02;22.10;;;8.60;;
81298;SDS011;70766;53.170;18.160;2023-11-18T05:32:30;18.60;;;7.40;;
81298;SDS011;70766;53.170;18.160;2023-11-18T05:34:58;20.30;;;8.60;;
81298;SDS011;70766;53.170;18.160;2023-11-18T05:37:27;20.20;;;8.00;;
81298;SDS011;70766;53.170;18.160;2023-11-18T05:39:57;18.90;;;7.60;;
81298;SDS011;70766;53.170;18.160;2023-11-18T05:42:34;23.10;;;9.30;;
81298;SDS011;70766;53.170;18.160;2023-11-18T05:45:07;17.30;;;8.20;;
81298;SDS011;70766;53.170;18.160;2023-11-18T05:47:39;29.40;;;11.90;;
81298;SDS011;70766;53.170;18.160;2023-11-18T05:50:07;24.60;;;8.50;;
81298;SDS011;70766;53.170;18.160;2023-11-18T05:52:35;15.80;;;6.80;;
81298;SDS011;70766;53.170;18.160;2023-11-18T05:55:04;25.50;;;10.40;;
81298;SDS011;70766;53.170;18.160;2023-11-18T05:57:33;22.10;;;8.80;;
81298;SDS011;70766;53.170;18.160;2023-11-18T06:00:03;18.60;;;7.60;;
81298;SDS011;70766;53.170;18.160;2023-11-18T06:02:39;23.50;;;8.70;;
81298;SDS011;70766;53.170;18.160;2023-11-18T06:05:08;24.20;;;9.20;;
81298;SDS011;70766;53.170;18.160;2023-11-18T06:07:38;28.80;;;10.90;;
81298;SDS011;70766;53.170;18.160;2023-11-18T06:10:07;29.30;;;11.10;;
81298;SDS011;70766;53.170;18.160;2023-11-18T06:12:36;19.30;;;7.60;;
81298;SDS011;70766;53.170;18.160;2023-11-18T06:15:08;26.90;;;10.10;;
81298;SDS011;70766;53.170;18.160;2023-11-18T06:17:37;28.40;;;11.10;;
81298;SDS011;70766;53.170;18.160;2023-11-18T06:20:06;21.80;;;8.20;;
81298;SDS011;70766;53.170;18.160;2023-11-18T06:22:35;21.90;;;8.40;;
81298;SDS011;70766;53.170;18.160;2023-11-18T06:25:03;27.90;;;10.00;;
81298;SDS011;70766;53.170;18.160;2023-11-18T06:27:35;27.30;;;10.70;;
81298;SDS011;70766;53.170;18.160;2023-11-18T06:30:03;26.30;;;10.10;;
81298;SDS011;70766;53.170;18.160;2023-11-18T06:32:34;32.90;;;11.60;;
81298;SDS011;70766;53.170;18.160;2023-11-18T06:35:02;22.60;;;8.20;;
81298;SDS011;70766;53.170;18.160;2023-11-18T06:37:33;31.70;;;11.40;;
81298;SDS011;70766;53.170;18.160;2023-11-18T06:40:02;27.30;;;10.00;;
81298;SDS011;70766;53.170;18.160;2023-11-18T06:42:34;30.30;;;11.50;;
81298;SDS011;70766;53.170;18.160;2023-11-18T06:45:05;22.20;;;8.10;;
81298;SDS011;70766;53.170;18.160;2023-11-18T06:47:34;25.70;;;9.90;;
81298;SDS011;70766;53.170;18.160;2023-11-18T06:50:07;26.00;;;10.70;;
81298;SDS011;70766;53.170;18.160;2023-11-18T06:52:37;22.80;;;9.00;;
81298;SDS011;70766;53.170;18.160;2023-11-18T06:55:06;27.30;;;8.40;;
81298;SDS011;70766;53.170;18.160;2023-11-18T06:57:35;25.40;;;10.20;;
81298;SDS011;70766;53.170;18.160;2023-11-18T07:00:04;25.80;;;9.70;;
81298;SDS011;70766;53.170;18.160;2023-11-18T07:02:36;29.30;;;10.60;;
81298;SDS011;70766;53.170;18.160;2023-11-18T07:05:06;29.90;;;11.40;;
81298;SDS011;70766;53.170;18.160;2023-11-18T07:07:35;35.90;;;12.00;;
81298;SDS011;70766;53.170;18.160;2023-11-18T07:10:05;37.00;;;13.20;;
81298;SDS011;70766;53.170;18.160;2023-11-18T07:12:35;56.30;;;18.90;;
81298;SDS011;70766;53.170;18.160;2023-11-18T07:15:06;43.80;;;16.00;;
81298;SDS011;70766;53.170;18.160;2023-11-18T07:17:35;42.30;;;15.10;;
81298;SDS011;70766;53.170;18.160;2023-11-18T07:20:03;28.10;;;10.40;;
81298;SDS011;70766;53.170;18.160;2023-11-18T07:22:33;35.50;;;11.90;;
81298;SDS011;70766;53.170;18.160;2023-11-18T07:25:02;28.80;;;10.40;;
81298;SDS011;70766;53.170;18.160;2023-11-18T07:27:33;34.90;;;13.80;;
81298;SDS011;70766;53.170;18.160;2023-11-18T07:30:04;28.90;;;10.60;;
81298;SDS011;70766;53.170;18.160;2023-11-18T07:32:34;27.50;;;9.40;;
81298;SDS011;70766;53.170;18.160;2023-11-18T07:35:03;30.60;;;11.50;;
81298;SDS011;70766;53.170;18.160;2023-11-18T07:37:37;29.30;;;11.90;;
81298;SDS011;70766;53.170;18.160;2023-11-18T07:40:10;28.50;;;10.80;;
81298;SDS011;70766;53.170;18.160;2023-11-18T07:42:40;35.30;;;12.70;;
81298;SDS011;70766;53.170;18.160;2023-11-18T07:45:08;24.70;;;9.60;;
81298;SDS011;70766;53.170;18.160;2023-11-18T07:47:45;35.80;;;12.30;;
81298;SDS011;70766;53.170;18.160;2023-11-18T07:50:17;25.30;;;8.90;;
81298;SDS011;70766;53.170;18.160;2023-11-18T07:52:48;25.60;;;10.20;;
81298;SDS011;70766;53.170;18.160;2023-11-18T07:55:18;23.80;;;10.20;;
81298;SDS011;70766;53.170;18.160;2023-11-18T07:57:47;36.40;;;13.90;;
81298;SDS011;70766;53.170;18.160;2023-11-18T08:00:15;19.40;;;7.80;;
81298;SDS011;70766;53.170;18.160;2023-11-18T08:02:43;32.00;;;12.40;;
81298;SDS011;70766;53.170;18.160;2023-11-18T08:05:13;28.10;;;10.90;;
81298;SDS011;70766;53.170;18.160;2023-11-18T08:07:43;22.10;;;8.60;;
81298;SDS011;70766;53.170;18.160;2023-11-18T08:10:13;31.10;;;11.30;;
81298;SDS011;70766;53.170;18.160;2023-11-18T08:12:41;29.20;;;12.50;;
81298;SDS011;70766;53.170;18.160;2023-11-18T08:15:11;23.60;;;10.80;;
81298;SDS011;70766;53.170;18.160;2023-11-18T08:17:39;25.00;;;10.90;;
81298;SDS011;70766;53.170;18.160;2023-11-18T08:20:07;26.60;;;10.80;;
81298;SDS011;70766;53.170;18.160;2023-11-18T08:22:42;32.80;;;12.50;;
81298;SDS011;70766;53.170;18.160;2023-11-18T08:25:14;31.30;;;12.90;;
81298;SDS011;70766;53.170;18.160;2023-11-18T08:27:43;21.80;;;9.00;;
81298;SDS011;70766;53.170;18.160;2023-11-18T08:30:13;24.20;;;9.80;;
81298;SDS011;70766;53.170;18.160;2023-11-18T08:32:46;18.90;;;8.30;;
81298;SDS011;70766;53.170;18.160;2023-11-18T08:35:16;20.60;;;8.10;;
81298;SDS011;70766;53.170;18.160;2023-11-18T08:37:44;21.50;;;10.30;;
81298;SDS011;70766;53.170;18.160;2023-11-18T08:40:15;19.10;;;7.60;;
81298;SDS011;70766;53.170;18.160;2023-11-18T08:42:44;23.90;;;10.10;;
81298;SDS011;70766;53.170;18.160;2023-11-18T08:45:22;19.70;;;7.60;;
81298;SDS011;70766;53.170;18.160;2023-11-18T08:48:02;27.60;;;11.40;;
81298;SDS011;70766;53.170;18.160;2023-11-18T08:50:37;26.00;;;11.50;;
81298;SDS011;70766;53.170;18.160;2023-11-18T08:53:09;24.10;;;9.20;;
81298;SDS011;70766;53.170;18.160;2023-11-18T08:55:39;26.30;;;12.40;;
81298;SDS011;70766;53.170;18.160;2023-11-18T08:58:11;24.80;;;10.70;;
81298;SDS011;70766;53.170;18.160;2023-11-18T09:01:02;25.10;;;11.00;;
81298;SDS011;70766;53.170;18.160;2023-11-18T09:03:41;27.80;;;11.70;;
81298;SDS011;70766;53.170;18.160;2023-11-18T09:06:29;26.20;;;11.10;;
81298;SDS011;70766;53.170;18.160;2023-11-18T09:09:01;21.30;;;9.10;;
81298;SDS011;70766;53.170;18.160;2023-11-18T09:11:34;26.50;;;11.80;;
81298;SDS011;70766;53.170;18.160;2023-11-18T09:14:02;30.30;;;13.60;;
81298;SDS011;70766;53.170;18.160;2023-11-18T09:16:32;32.30;;;13.90;;
81298;SDS011;70766;53.170;18.160;2023-11-18T09:19:06;20.20;;;8.20;;
81298;SDS011;70766;53.170;18.160;2023-11-18T09:21:34;22.20;;;9.20;;
81298;SDS011;70766;53.170;18.160;2023-11-18T09:24:04;25.80;;;11.50;;
81298;SDS011;70766;53.170;18.160;2023-11-18T09:26:43;28.40;;;12.90;;
81298;SDS011;70766;53.170;18.160;2023-11-18T09:29:26;29.90;;;14.30;;
81298;SDS011;70766;53.170;18.160;2023-11-18T09:31:57;30.20;;;14.10;;
81298;SDS011;70766;53.170;18.160;2023-11-18T09:34:26;31.20;;;14.50;;
81298;SDS011;70766;53.170;18.160;2023-11-18T09:37:01;28.30;;;12.80;;
81298;SDS011;70766;53.170;18.160;2023-11-18T09:39:29;28.30;;;13.60;;
81298;SDS011;70766;53.170;18.160;2023-11-18T09:42:06;24.00;;;12.60;;
81298;SDS011;70766;53.170;18.160;2023-11-18T09:44:37;24.60;;;11.50;;
81298;SDS011;70766;53.170;18.160;2023-11-18T09:47:08;24.50;;;12.60;;
81298;SDS011;70766;53.170;18.160;2023-11-18T09:49:44;23.60;;;12.40;;
81298;SDS011;70766;53.170;18.160;2023-11-18T09:52:15;14.20;;;6.90;;
81298;SDS011;70766;53.170;18.160;2023-11-18T09:57:43;18.60;;;10.00;;
81298;SDS011;70766;53.170;18.160;2023-11-18T10:00:14;19.50;;;10.60;;
81298;SDS011;70766;53.170;18.160;2023-11-18T10:02:57;21.80;;;11.60;;
81298;SDS011;70766;53.170;18.160;2023-11-18T10:05:30;23.70;;;12.20;;
81298;SDS011;70766;53.170;18.160;2023-11-18T10:08:27;23.40;;;12.10;;
81298;SDS011;70766;53.170;18.160;2023-11-18T10:10:58;24.00;;;12.80;;
81298;SDS011;70766;53.170;18.160;2023-11-18T10:13:36;22.50;;;12.50;;
81298;SDS011;70766;53.170;18.160;2023-11-18T10:16:10;19.60;;;10.70;;
81298;SDS011;70766;53.170;18.160;2023-11-18T10:18:38;19.40;;;10.20;;
81298;SDS011;70766;53.170;18.160;2023-11-18T10:21:12;18.60;;;10.90;;
81298;SDS011;70766;53.170;18.160;2023-11-18T10:23:58;19.10;;;10.60;;
81298;SDS011;70766;53.170;18.160;2023-11-18T10:26:30;20.70;;;11.20;;
81298;SDS011;70766;53.170;18.160;2023-11-18T10:29:02;20.20;;;11.10;;
81298;SDS011;70766;53.170;18.160;2023-11-18T10:31:35;15.70;;;8.90;;
81298;SDS011;70766;53.170;18.160;2023-11-18T10:34:05;17.00;;;9.10;;
81298;SDS011;70766;53.170;18.160;2023-11-18T10:37:01;14.90;;;8.30;;
81298;SDS011;70766;53.170;18.160;2023-11-18T10:39:32;17.20;;;9.80;;
81298;SDS011;70766;53.170;18.160;2023-11-18T10:42:06;31.20;;;15.40;;
81298;SDS011;70766;53.170;18.160;2023-11-18T10:44:34;21.90;;;10.20;;
81298;SDS011;70766;53.170;18.160;2023-11-18T10:47:04;16.20;;;9.20;;
81298;SDS011;70766;53.170;18.160;2023-11-18T10:49:32;19.10;;;9.90;;
81298;SDS011;70766;53.170;18.160;2023-11-18T10:52:06;16.20;;;8.90;;
81298;SDS011;70766;53.170;18.160;2023-11-18T10:54:37;20.00;;;11.10;;
81298;SDS011;70766;53.170;18.160;2023-11-18T10:57:06;16.00;;;8.40;;
81298;SDS011;70766;53.170;18.160;2023-11-18T10:59:57;16.90;;;9.40;;
81298;SDS011;70766;53.170;18.160;2023-11-18T11:02:29;18.70;;;10.50;;
81298;SDS011;70766;53.170;18.160;2023-11-18T11:05:12;13.90;;;7.80;;
81298;SDS011;70766;53.170;18.160;2023-11-18T11:07:56;19.00;;;10.60;;
81298;SDS011;70766;53.170;18.160;2023-11-18T11:10:27;18.60;;;9.70;;
81298;SDS011;70766;53.170;18.160;2023-11-18T11:12:56;13.30;;;6.90;;
81298;SDS011;70766;53.170;18.160;2023-11-18T11:15:31;14.60;;;7.30;;
81298;SDS011;70766;53.170;18.160;2023-11-18T11:18:19;18.20;;;9.90;;
81298;SDS011;70766;53.170;18.160;2023-11-18T11:21:06;17.50;;;9.60;;
81298;SDS011;70766;53.170;18.160;2023-11-18T11:24:00;13.50;;;6.60;;
81298;SDS011;70766;53.170;18.160;2023-11-18T11:26:57;15.30;;;7.60;;
81298;SDS011;70766;53.170;18.160;2023-11-18T11:29:49;11.20;;;5.50;;
81298;SDS011;70766;53.170;18.160;2023-11-18T11:32:30;11.20;;;5.00;;
81298;SDS011;70766;53.170;18.160;2023-11-18T11:35:22;10.50;;;5.10;;
81298;SDS011;70766;53.170;18.160;2023-11-18T11:40:57;14.00;;;7.20;;
81298;SDS011;70766;53.170;18.160;2023-11-18T11:43:36;13.20;;;6.40;;
81298;SDS011;70766;53.170;18.160;2023-11-18T11:46:10;11.90;;;6.30;;
81298;SDS011;70766;53.170;18.160;2023-11-18T11:48:42;10.60;;;5.70;;
81298;SDS011;70766;53.170;18.160;2023-11-18T11:53:50;14.90;;;7.70;;
81298;SDS011;70766;53.170;18.160;2023-11-18T11:56:43;11.40;;;5.80;;
81298;SDS011;70766;53.170;18.160;2023-11-18T11:59:11;19.10;;;9.40;;
81298;SDS011;70766;53.170;18.160;2023-11-18T12:01:40;17.90;;;9.20;;
81298;SDS011;70766;53.170;18.160;2023-11-18T12:04:15;15.90;;;7.80;;
81298;SDS011;70766;53.170;18.160;2023-11-18T12:06:50;12.40;;;5.90;;
81298;SDS011;70766;53.170;18.160;2023-11-18T12:09:41;19.30;;;9.70;;
81298;SDS011;70766;53.170;18.160;2023-11-18T12:12:18;21.80;;;11.10;;
81298;SDS011;70766;53.170;18.160;2023-11-18T12:14:55;23.50;;;11.70;;
81298;SDS011;70766;53.170;18.160;2023-11-18T12:17:25;14.70;;;7.00;;
81298;SDS011;70766;53.170;18.160;2023-11-18T12:20:01;15.20;;;7.50;;
81298;SDS011;70766;53.170;18.160;2023-11-18T12:25:33;18.40;;;9.10;;
81298;SDS011;70766;53.170;18.160;2023-11-18T12:28:06;18.30;;;8.80;;
81298;SDS011;70766;53.170;18.160;2023-11-18T12:33:05;19.90;;;9.20;;
81298;SDS011;70766;53.170;18.160;2023-11-18T12:44:29;16.50;;;7.90;;
81298;SDS011;70766;53.170;18.160;2023-11-18T12:47:04;15.60;;;7.70;;
81298;SDS011;70766;53.170;18.160;2023-11-18T12:49:49;20.80;;;9.60;;
81298;SDS011;70766;53.170;18.160;2023-11-18T12:52:22;14.90;;;6.50;;
81298;SDS011;70766;53.170;18.160;2023-11-18T12:54:51;16.70;;;7.50;;
81298;SDS011;70766;53.170;18.160;2023-11-18T12:57:27;13.30;;;6.20;;
81298;SDS011;70766;53.170;18.160;2023-11-18T13:00:00;17.20;;;7.50;;
81298;SDS011;70766;53.170;18.160;2023-11-18T13:02:31;18.70;;;7.60;;
81298;SDS011;70766;53.170;18.160;2023-11-18T13:05:04;14.70;;;7.40;;
81298;SDS011;70766;53.170;18.160;2023-11-18T13:07:33;16.90;;;8.60;;
81298;SDS011;70766;53.170;18.160;2023-11-18T13:10:04;17.30;;;9.00;;
81298;SDS011;70766;53.170;18.160;2023-11-18T13:12:33;14.10;;;7.50;;
81298;SDS011;70766;53.170;18.160;2023-11-18T13:15:02;18.00;;;9.20;;
81298;SDS011;70766;53.170;18.160;2023-11-18T13:17:30;23.60;;;10.10;;
81298;SDS011;70766;53.170;18.160;2023-11-18T13:20:10;16.00;;;7.50;;
81298;SDS011;70766;53.170;18.160;2023-11-18T13:22:42;16.00;;;7.80;;
81298;SDS011;70766;53.170;18.160;2023-11-18T13:25:15;19.40;;;8.70;;
81298;SDS011;70766;53.170;18.160;2023-11-18T13:27:45;19.70;;;9.00;;
81298;SDS011;70766;53.170;18.160;2023-11-18T13:30:13;16.70;;;7.70;;
81298;SDS011;70766;53.170;18.160;2023-11-18T13:32:45;13.90;;;6.00;;
81298;SDS011;70766;53.170;18.160;2023-11-18T13:35:14;20.40;;;8.70;;
81298;SDS011;70766;53.170;18.160;2023-11-18T13:37:47;22.00;;;9.70;;
81298;SDS011;70766;53.170;18.160;2023-11-18T13:40:17;20.10;;;9.00;;
81298;SDS011;70766;53.170;18.160;2023-11-18T13:42:53;21.70;;;9.30;;
81298;SDS011;70766;53.170;18.160;2023-11-18T13:45:37;22.70;;;10.60;;
81298;SDS011;70766;53.170;18.160;2023-11-18T13:48:10;23.80;;;11.10;;
81298;SDS011;70766;53.170;18.160;2023-11-18T13:50:42;22.30;;;10.20;;
81298;SDS011;70766;53.170;18.160;2023-11-18T13:53:11;20.30;;;9.30;;
81298;SDS011;70766;53.170;18.160;2023-11-18T13:55:42;20.80;;;8.10;;
81298;SDS011;70766;53.170;18.160;2023-11-18T13:58:13;19.60;;;8.20;;
81298;SDS011;70766;53.170;18.160;2023-11-18T14:00:41;17.50;;;8.70;;
81298;SDS011;70766;53.170;18.160;2023-11-18T14:03:10;18.10;;;8.20;;
81298;SDS011;70766;53.170;18.160;2023-11-18T14:05:40;22.60;;;10.30;;
81298;SDS011;70766;53.170;18.160;2023-11-18T14:08:16;18.20;;;8.20;;
81298;SDS011;70766;53.170;18.160;2023-11-18T14:10:45;19.70;;;8.90;;
81298;SDS011;70766;53.170;18.160;2023-11-18T14:13:25;28.50;;;11.20;;
81298;SDS011;70766;53.170;18.160;2023-11-18T14:16:00;17.80;;;8.30;;
81298;SDS011;70766;53.170;18.160;2023-11-18T14:18:30;23.70;;;10.70;;
81298;SDS011;70766;53.170;18.160;2023-11-18T14:21:13;26.10;;;11.80;;
81298;SDS011;70766;53.170;18.160;2023-11-18T14:23:42;28.10;;;11.80;;
81298;SDS011;70766;53.170;18.160;2023-11-18T14:26:10;21.80;;;9.60;;
81298;SDS011;70766;53.170;18.160;2023-11-18T14:28:40;20.90;;;9.60;;
81298;SDS011;70766;53.170;18.160;2023-11-18T14:31:10;25.30;;;10.80;;
81298;SDS011;70766;53.170;18.160;2023-11-18T14:33:39;23.70;;;11.10;;
81298;SDS011;70766;53.170;18.160;2023-11-18T14:36:07;23.50;;;10.80;;
81298;SDS011;70766;53.170;18.160;2023-11-18T14:38:37;20.50;;;9.00;;
81298;SDS011;70766;53.170;18.160;2023-11-18T14:41:05;25.50;;;11.30;;
81298;SDS011;70766;53.170;18.160;2023-11-18T14:43:35;23.70;;;10.60;;
81298;SDS011;70766;53.170;18.160;2023-11-18T14:46:04;17.90;;;7.00;;
81298;SDS011;70766;53.170;18.160;2023-11-18T14:48:33;19.30;;;8.70;;
81298;SDS011;70766;53.170;18.160;2023-11-18T14:51:01;30.00;;;12.10;;
81298;SDS011;70766;53.170;18.160;2023-11-18T14:53:29;29.20;;;12.30;;
81298;SDS011;70766;53.170;18.160;2023-11-18T14:55:58;34.10;;;14.30;;
81298;SDS011;70766;53.170;18.160;2023-11-18T14:58:26;44.70;;;18.30;;
81298;SDS011;70766;53.170;18.160;2023-11-18T15:00:56;43.30;;;18.60;;